Time;durP1;ratioP1;P1;durP2;ratioP2;P2;SDS_P1;SDS_P2;PMS_P1;PMS_P2;Temp;Humidity;BMP_temperature;BMP_pressure;BME280_temperature;BME280_humidity;BME280_pressure;Samples;Min_cycle;Max_cycle;Signal;HPM_P1;HPM_P2
2023/05/26 00:01:40;;;;;;;;;;;21.80;65.30;;;;;;5093810;28;19908;-68
2023/05/26 00:04:05;;;;;;;;;;;21.70;65.00;;;;;;5093414;28;19912;-70
2023/05/26 00:06:31;;;;;;;;;;;21.70;65.40;;;;;;5093430;28;19911;-69
2023/05/26 00:08:57;;;;;;;;;;;21.70;65.60;;;;;;5092375;28;19918;-70
2023/05/26 00:11:22;;;;;;;;;;;21.70;65.70;;;;;;5093177;28;20255;-70
2023/05/26 00:13:48;;;;;;;;;;;21.80;65.60;;;;;;5093703;28;20282;-68
2023/05/26 00:16:13;;;;;;;;;;;21.80;66.00;;;;;;5093612;28;19904;-68
2023/05/26 00:18:39;;;;;;;;;;;21.80;66.20;;;;;;5092884;28;19923;-69
2023/05/26 00:21:05;;;;;;;;;;;21.80;66.30;;;;;;5092846;28;19915;-69
2023/05/26 00:23:30;;;;;;;;;;;21.80;65.90;;;;;;5093433;28;19904;-68
2023/05/26 00:25:56;;;;;;;;;;;21.80;65.50;;;;;;5093240;28;19904;-71
2023/05/26 00:28:21;;;;;;;;;;;21.80;65.70;;;;;;5074585;28;19908;-70
2023/05/26 00:30:47;;;;;;;;;;;21.80;65.10;;;;;;5093317;28;19908;-68
2023/05/26 00:33:12;;;;;;;;;;;21.80;65.30;;;;;;5092650;28;19953;-70
2023/05/26 00:35:38;;;;;;;;;;;21.90;65.70;;;;;;5093255;28;20361;-70
2023/05/26 00:38:04;;;;;;;;;;;21.90;65.70;;;;;;5093008;28;19938;-71
2023/05/26 00:40:32;;;;;;;;;;;21.90;65.60;;;;;;5093261;28;19911;-72
2023/05/26 00:42:58;;;;;;;;;;;22.00;65.10;;;;;;5093665;28;19947;-72
2023/05/26 00:45:24;;;;;;;;;;;22.00;65.40;;;;;;5075942;28;19912;-72
2023/05/26 00:47:49;;;;;;;;;;;22.00;65.00;;;;;;5076037;28;20040;-72
2023/05/26 00:50:16;;;;;;;;;;;22.10;64.80;;;;;;5075930;28;19908;-72
2023/05/26 00:52:42;;;;;;;;;;;22.10;64.80;;;;;;5093863;28;20015;-71
2023/05/26 00:55:08;;;;;;;;;;;22.10;64.80;;;;;;5093298;28;20443;-72
2023/05/26 00:57:34;;;;;;;;;;;22.20;64.70;;;;;;5094037;28;19904;-71
2023/05/26 01:00:00;;;;;;;;;;;22.20;64.70;;;;;;5094272;28;20381;-71
2023/05/26 01:02:27;;;;;;;;;;;22.10;64.60;;;;;;5093566;28;19934;-71
2023/05/26 01:04:53;;;;;;;;;;;22.10;64.70;;;;;;5075689;28;20396;-71
2023/05/26 01:07:20;;;;;;;;;;;22.10;64.60;;;;;;5093948;28;19904;-71
2023/05/26 01:09:47;;;;;;;;;;;22.10;64.80;;;;;;5094293;28;19908;-71
2023/05/26 01:12:23;;;;;;;;;;;22.10;64.80;;;;;;5075608;28;19908;-71
2023/05/26 01:15:00;;;;;;;;;;;22.10;64.70;;;;;;5093787;28;20007;-71
2023/05/26 01:17:30;;;;;;;;;;;22.10;65.20;;;;;;5075571;28;19916;-71
2023/05/26 01:20:14;;;;;;;;;;;22.10;65.20;;;;;;5093810;28;20463;-71
2023/05/26 01:22:48;;;;;;;;;;;22.10;65.30;;;;;;5079127;28;19904;-71
2023/05/26 01:25:32;;;;;;;;;;;22.00;65.50;;;;;;5077306;28;20393;-72
2023/05/26 01:28:14;;;;;;;;;;;22.00;65.60;;;;;;5077335;28;20293;-72
2023/05/26 01:30:41;;;;;;;;;;;22.00;65.50;;;;;;5077191;28;19943;-72
2023/05/26 01:33:07;;;;;;;;;;;22.00;65.70;;;;;;5077902;28;19993;-72
2023/05/26 01:35:32;;;;;;;;;;;22.00;65.80;;;;;;5079125;28;20373;-72
2023/05/26 01:37:59;;;;;;;;;;;22.00;65.70;;;;;;5079212;28;19961;-71
2023/05/26 01:40:24;;;;;;;;;;;22.00;66.00;;;;;;5079197;28;19912;-72
2023/05/26 01:43:09;;;;;;;;;;;21.90;66.00;;;;;;5096662;28;20002;-70
2023/05/26 01:45:37;;;;;;;;;;;21.90;66.30;;;;;;5097159;28;19908;-71
2023/05/26 01:48:03;;;;;;;;;;;21.90;66.10;;;;;;5078940;28;19904;-71
2023/05/26 01:50:32;;;;;;;;;;;21.90;66.30;;;;;;5096998;28;19919;-70
2023/05/26 01:52:58;;;;;;;;;;;21.90;66.20;;;;;;5096719;28;19904;-69
2023/05/26 01:55:26;;;;;;;;;;;21.80;66.20;;;;;;5096699;28;19961;-71
2023/05/26 01:57:52;;;;;;;;;;;21.90;66.30;;;;;;5096966;28;19904;-71
2023/05/26 02:00:25;;;;;;;;;;;21.80;66.30;;;;;;5078999;28;19998;-71
2023/05/26 02:02:51;;;;;;;;;;;21.90;66.60;;;;;;5078391;28;19907;-71
2023/05/26 02:05:17;;;;;;;;;;;21.80;66.60;;;;;;5096650;28;19955;-71
2023/05/26 02:07:42;;;;;;;;;;;21.80;66.60;;;;;;5096738;28;20325;-71
2023/05/26 02:10:08;;;;;;;;;;;21.80;66.70;;;;;;5096373;28;19954;-71
2023/05/26 02:12:33;;;;;;;;;;;21.80;66.80;;;;;;5078742;28;20316;-71
2023/05/26 02:14:59;;;;;;;;;;;21.80;66.90;;;;;;5096570;28;19904;-71
2023/05/26 02:17:24;;;;;;;;;;;21.80;67.00;;;;;;5096406;28;19966;-70
2023/05/26 02:19:50;;;;;;;;;;;21.80;66.90;;;;;;5096401;28;19904;-70
2023/05/26 02:22:15;;;;;;;;;;;21.70;67.10;;;;;;5096500;28;20239;-70
2023/05/26 02:24:41;;;;;;;;;;;21.80;67.20;;;;;;5095888;28;19954;-70
2023/05/26 02:27:06;;;;;;;;;;;21.80;67.10;;;;;;5078210;28;19904;-70
2023/05/26 02:29:32;;;;;;;;;;;21.80;67.10;;;;;;5096089;28;19912;-71
2023/05/26 02:31:57;;;;;;;;;;;21.80;67.20;;;;;;5096189;28;20422;-70
2023/05/26 02:34:23;;;;;;;;;;;21.80;67.00;;;;;;5096213;28;20292;-70
2023/05/26 02:36:49;;;;;;;;;;;21.80;67.20;;;;;;5096256;28;20373;-70
2023/05/26 02:39:16;;;;;;;;;;;21.80;67.20;;;;;;5095822;28;19916;-71
2023/05/26 02:41:41;;;;;;;;;;;21.80;67.20;;;;;;5096188;28;20261;-70
2023/05/26 02:44:07;;;;;;;;;;;21.80;67.30;;;;;;5077641;28;19908;-70
2023/05/26 02:46:32;;;;;;;;;;;21.80;67.20;;;;;;5077667;28;19926;-71
2023/05/26 02:49:00;;;;;;;;;;;21.80;67.40;;;;;;5095935;28;20368;-71
2023/05/26 02:51:26;;;;;;;;;;;21.80;67.40;;;;;;5095855;28;19914;-71
2023/05/26 02:53:51;;;;;;;;;;;21.80;67.60;;;;;;5077369;28;20030;-70
2023/05/26 02:56:17;;;;;;;;;;;21.80;67.40;;;;;;5077746;28;19904;-70
2023/05/26 02:58:43;;;;;;;;;;;21.80;67.40;;;;;;5095687;28;19907;-70
2023/05/26 03:01:08;;;;;;;;;;;21.80;67.40;;;;;;5095191;28;20286;-71
2023/05/26 03:03:35;;;;;;;;;;;21.80;67.60;;;;;;5095693;28;19908;-71
2023/05/26 03:06:02;;;;;;;;;;;21.80;67.50;;;;;;5095483;28;20003;-71
2023/05/26 03:08:28;;;;;;;;;;;21.80;67.60;;;;;;5095258;28;19949;-71
2023/05/26 03:10:53;;;;;;;;;;;21.80;67.70;;;;;;5095545;28;19908;-71
2023/05/26 03:13:19;;;;;;;;;;;21.80;67.60;;;;;;5095392;28;19951;-70
2023/05/26 03:15:47;;;;;;;;;;;21.80;67.70;;;;;;5095322;28;19912;-70
2023/05/26 03:18:13;;;;;;;;;;;21.80;67.80;;;;;;5095409;28;20358;-71
2023/05/26 03:20:39;;;;;;;;;;;21.80;67.80;;;;;;5095022;28;19938;-71
2023/05/26 03:23:05;;;;;;;;;;;21.90;67.70;;;;;;5095086;28;19907;-71
2023/05/26 03:25:30;;;;;;;;;;;21.80;67.80;;;;;;5077268;28;19950;-70
2023/05/26 03:27:56;;;;;;;;;;;21.90;67.70;;;;;;5095582;28;20342;-71
2023/05/26 03:30:21;;;;;;;;;;;21.90;68.20;;;;;;5076871;28;19912;-71
2023/05/26 03:32:47;;;;;;;;;;;21.90;68.10;;;;;;5094625;28;19973;-71
2023/05/26 03:35:12;;;;;;;;;;;22.00;68.00;;;;;;5095093;28;19911;-71
2023/05/26 03:37:38;;;;;;;;;;;22.00;67.40;;;;;;5094633;28;19938;-71
2023/05/26 03:40:05;;;;;;;;;;;22.00;67.60;;;;;;5075930;28;19912;-70
2023/05/26 03:42:30;;;;;;;;;;;22.10;67.90;;;;;;5094363;28;19908;-70
2023/05/26 03:44:56;;;;;;;;;;;22.10;67.60;;;;;;5094321;28;19973;-71
2023/05/26 03:47:21;;;;;;;;;;;22.20;67.40;;;;;;5094153;28;19908;-71
2023/05/26 03:49:47;;;;;;;;;;;22.30;67.00;;;;;;5094366;28;19911;-71
2023/05/26 03:52:13;;;;;;;;;;;22.30;66.70;;;;;;5076638;28;20262;-71
2023/05/26 03:54:38;;;;;;;;;;;22.30;67.10;;;;;;5094716;28;19904;-71
2023/05/26 03:57:04;;;;;;;;;;;22.30;66.80;;;;;;5094597;28;19934;-71
2023/05/26 03:59:30;;;;;;;;;;;22.40;66.70;;;;;;5094312;28;20259;-71
2023/05/26 04:01:55;;;;;;;;;;;22.40;66.80;;;;;;5076438;28;19904;-70
2023/05/26 04:04:21;;;;;;;;;;;22.50;66.50;;;;;;5094353;28;19908;-71
2023/05/26 04:06:46;;;;;;;;;;;22.60;66.30;;;;;;5094517;28;19961;-73
2023/05/26 04:09:12;;;;;;;;;;;22.60;66.00;;;;;;5094550;28;19961;-72
2023/05/26 04:11:37;;;;;;;;;;;22.70;65.80;;;;;;5094409;28;20037;-72
2023/05/26 04:14:03;;;;;;;;;;;22.60;65.70;;;;;;5076143;28;19904;-72
2023/05/26 04:16:28;;;;;;;;;;;22.60;65.70;;;;;;5094477;28;19904;-72
2023/05/26 04:18:54;;;;;;;;;;;22.60;65.80;;;;;;5094077;28;19927;-72
2023/05/26 04:21:20;;;;;;;;;;;22.60;65.90;;;;;;5093812;28;19915;-72
2023/05/26 04:23:51;;;;;;;;;;;22.60;66.20;;;;;;5094350;28;19994;-73
2023/05/26 04:26:17;;;;;;;;;;;22.70;66.20;;;;;;5094562;28;19904;-73
2023/05/26 04:28:44;;;;;;;;;;;22.70;66.40;;;;;;5094119;28;20486;-73
2023/05/26 04:31:09;;;;;;;;;;;22.70;66.50;;;;;;5094113;28;20384;-73
2023/05/26 04:33:39;;;;;;;;;;;22.70;66.80;;;;;;5094134;28;19904;-73
2023/05/26 04:36:08;;;;;;;;;;;22.70;66.30;;;;;;5094409;28;19908;-73
2023/05/26 04:38:34;;;;;;;;;;;22.70;66.40;;;;;;5094091;28;19949;-73
2023/05/26 04:41:00;;;;;;;;;;;22.70;66.30;;;;;;5076001;28;19919;-73
2023/05/26 04:43:26;;;;;;;;;;;22.70;66.40;;;;;;5076060;28;19904;-72
2023/05/26 04:45:51;;;;;;;;;;;22.80;66.40;;;;;;5075687;28;19965;-71
2023/05/26 04:48:17;;;;;;;;;;;22.80;66.40;;;;;;5093949;28;20254;-71
2023/05/26 04:50:42;;;;;;;;;;;22.80;66.40;;;;;;5093662;28;20004;-70
2023/05/26 04:53:08;;;;;;;;;;;22.90;66.40;;;;;;5093936;28;20016;-71
2023/05/26 04:55:35;;;;;;;;;;;22.90;66.90;;;;;;5095212;28;19904;-71
2023/05/26 04:58:01;;;;;;;;;;;22.90;66.40;;;;;;5079707;28;19953;-72
2023/05/26 05:00:27;;;;;;;;;;;22.90;66.40;;;;;;5098052;28;19957;-69
2023/05/26 05:02:52;;;;;;;;;;;23.00;67.20;;;;;;5079464;28;20312;-71
2023/05/26 05:05:18;;;;;;;;;;;23.00;66.30;;;;;;5098243;28;19908;-69
2023/05/26 05:07:43;;;;;;;;;;;23.10;66.80;;;;;;5097713;28;19908;-69
2023/05/26 05:10:09;;;;;;;;;;;23.20;66.20;;;;;;5091144;28;20388;-69
2023/05/26 05:12:35;;;;;;;;;;;23.20;65.80;;;;;;5084307;28;20421;-69
2023/05/26 05:15:00;;;;;;;;;;;23.30;66.00;;;;;;5079213;28;20270;-70
2023/05/26 05:17:26;;;;;;;;;;;23.30;65.50;;;;;;5076696;28;19916;-70
2023/05/26 05:19:53;;;;;;;;;;;23.30;65.40;;;;;;5077908;28;19983;-70
2023/05/26 05:22:18;;;;;;;;;;;23.50;65.40;;;;;;5072510;28;19915;-69
2023/05/26 05:24:44;;;;;;;;;;;23.50;65.10;;;;;;5097265;28;19954;-68
2023/05/26 05:27:09;;;;;;;;;;;23.60;64.90;;;;;;5096544;28;20327;-69
2023/05/26 05:29:35;;;;;;;;;;;23.60;64.80;;;;;;5096807;28;19955;-69
2023/05/26 05:32:00;;;;;;;;;;;23.70;64.50;;;;;;5096420;28;19944;-69
2023/05/26 05:34:26;;;;;;;;;;;23.80;64.30;;;;;;5096900;28;19908;-68
2023/05/26 05:36:51;;;;;;;;;;;23.90;64.00;;;;;;5096917;28;19908;-67
2023/05/26 05:39:17;;;;;;;;;;;23.90;64.00;;;;;;5095927;28;20301;-68
2023/05/26 05:41:42;;;;;;;;;;;23.90;63.90;;;;;;5095665;28;19908;-68
2023/05/26 05:44:08;;;;;;;;;;;24.00;63.70;;;;;;5096668;28;19911;-69
2023/05/26 05:46:33;;;;;;;;;;;24.10;63.30;;;;;;5077772;28;19908;-70
2023/05/26 05:48:59;;;;;;;;;;;24.10;63.10;;;;;;5095819;28;19920;-68
2023/05/26 05:51:24;;;;;;;;;;;24.10;62.90;;;;;;5095870;28;19911;-68
2023/05/26 05:53:50;;;;;;;;;;;24.20;62.60;;;;;;5077549;28;19939;-68
2023/05/26 05:56:16;;;;;;;;;;;24.20;62.50;;;;;;5096855;28;20254;-68
2023/05/26 05:58:42;;;;;;;;;;;24.10;62.40;;;;;;5096633;28;19911;-68
2023/05/26 06:01:07;;;;;;;;;;;24.20;62.40;;;;;;5096515;28;19904;-68
2023/05/26 06:03:33;;;;;;;;;;;24.20;62.50;;;;;;5096311;28;19908;-68
2023/05/26 06:05:58;;;;;;;;;;;24.20;61.80;;;;;;5096036;28;19910;-68
2023/05/26 06:08:24;;;;;;;;;;;24.20;61.70;;;;;;5096214;28;20273;-68
2023/05/26 06:10:49;;;;;;;;;;;24.30;61.50;;;;;;5078249;28;19908;-68
2023/05/26 06:13:15;;;;;;;;;;;24.30;61.50;;;;;;5096598;28;19986;-68
2023/05/26 06:15:41;;;;;;;;;;;24.30;61.30;;;;;;5096268;28;20023;-69
2023/05/26 06:18:06;;;;;;;;;;;24.30;61.40;;;;;;5093978;28;19920;-68
2023/05/26 06:20:32;;;;;;;;;;;24.30;61.50;;;;;;5095858;28;19908;-68
2023/05/26 06:22:57;;;;;;;;;;;24.40;61.50;;;;;;5096326;28;20399;-69
2023/05/26 06:25:23;;;;;;;;;;;24.40;61.30;;;;;;5095986;28;19978;-70
2023/05/26 06:27:48;;;;;;;;;;;24.40;61.50;;;;;;5096270;28;19908;-68
2023/05/26 06:30:14;;;;;;;;;;;24.40;61.40;;;;;;5095870;28;19920;-68
2023/05/26 06:32:41;;;;;;;;;;;24.40;61.40;;;;;;5096056;28;19904;-69
2023/05/26 06:35:06;;;;;;;;;;;24.50;61.40;;;;;;5096060;28;19995;-67
2023/05/26 06:37:32;;;;;;;;;;;24.50;61.20;;;;;;5095550;28;19999;-67
2023/05/26 06:39:57;;;;;;;;;;;24.50;61.10;;;;;;5094881;28;19908;-67
2023/05/26 06:42:23;;;;;;;;;;;24.50;60.80;;;;;;5077612;28;19904;-68
2023/05/26 06:44:49;;;;;;;;;;;24.40;60.90;;;;;;5095474;28;20274;-68
2023/05/26 06:47:14;;;;;;;;;;;24.40;60.80;;;;;;5095550;28;19911;-70
2023/05/26 06:49:40;;;;;;;;;;;24.30;60.90;;;;;;5095795;28;19919;-69
2023/05/26 06:52:05;;;;;;;;;;;24.30;61.00;;;;;;5096029;28;19904;-69
2023/05/26 06:54:30;;;;;;;;;;;24.20;61.10;;;;;;5095760;28;19904;-69
2023/05/26 06:56:56;;;;;;;;;;;24.20;61.40;;;;;;5077298;28;19911;-69
2023/05/26 06:59:22;;;;;;;;;;;24.10;61.50;;;;;;5095270;28;19927;-70
2023/05/26 07:01:47;;;;;;;;;;;24.00;61.60;;;;;;5095649;28;20377;-70
2023/05/26 07:04:13;;;;;;;;;;;24.00;61.80;;;;;;5095610;28;19911;-70
2023/05/26 07:06:38;;;;;;;;;;;23.90;61.90;;;;;;5095455;28;20340;-70
2023/05/26 07:09:04;;;;;;;;;;;23.90;62.00;;;;;;5095430;28;19912;-69
2023/05/26 07:11:29;;;;;;;;;;;23.90;62.10;;;;;;5082903;28;19908;-67
2023/05/26 07:13:55;;;;;;;;;;;23.80;62.20;;;;;;5091403;28;19914;-69
2023/05/26 07:16:20;;;;;;;;;;;23.80;62.40;;;;;;5095019;28;19950;-68
2023/05/26 07:18:46;;;;;;;;;;;23.80;62.50;;;;;;5094754;28;19923;-68
2023/05/26 07:21:11;;;;;;;;;;;23.80;62.50;;;;;;5094976;28;19995;-68
2023/05/26 07:23:37;;;;;;;;;;;23.80;62.50;;;;;;5077094;28;19939;-68
2023/05/26 07:26:03;;;;;;;;;;;23.80;62.60;;;;;;5094351;28;19959;-68
2023/05/26 07:28:28;;;;;;;;;;;23.80;62.70;;;;;;5095267;28;20003;-68
2023/05/26 07:30:53;;;;;;;;;;;23.80;62.70;;;;;;5094360;28;19912;-68
2023/05/26 07:33:19;;;;;;;;;;;23.80;62.80;;;;;;5094847;28;19903;-68
2023/05/26 07:35:45;;;;;;;;;;;23.80;62.80;;;;;;5094506;28;20285;-67
2023/05/26 07:38:10;;;;;;;;;;;23.80;62.80;;;;;;5094756;28;20285;-67
2023/05/26 07:40:36;;;;;;;;;;;23.80;63.00;;;;;;5094382;28;19915;-67
2023/05/26 07:43:02;;;;;;;;;;;23.80;62.90;;;;;;5098755;28;19908;-68
2023/05/26 07:45:28;;;;;;;;;;;23.90;63.00;;;;;;5094441;28;19952;-67
2023/05/26 07:47:53;;;;;;;;;;;23.90;62.90;;;;;;5075792;28;19908;-68
2023/05/26 07:50:19;;;;;;;;;;;23.90;63.00;;;;;;5075583;28;19947;-70
2023/05/26 07:52:45;;;;;;;;;;;23.90;62.90;;;;;;5094040;28;19908;-69
2023/05/26 07:55:10;;;;;;;;;;;23.90;62.80;;;;;;5093715;28;19908;-69
2023/05/26 07:57:36;;;;;;;;;;;24.00;62.80;;;;;;5093637;28;19907;-68
2023/05/26 08:00:03;;;;;;;;;;;24.00;63.00;;;;;;5093414;28;19939;-68
2023/05/26 08:02:28;;;;;;;;;;;24.20;63.00;;;;;;5091689;28;19904;-68
2023/05/26 08:04:54;;;;;;;;;;;24.20;62.70;;;;;;5098671;28;20385;-68
2023/05/26 08:07:20;;;;;;;;;;;24.30;62.60;;;;;;5101134;28;19908;-68
2023/05/26 08:09:46;;;;;;;;;;;24.40;62.50;;;;;;5092484;28;19923;-68
2023/05/26 08:12:11;;;;;;;;;;;24.40;62.50;;;;;;5093158;28;19953;-69
2023/05/26 08:14:37;;;;;;;;;;;24.50;62.40;;;;;;5092855;28;19920;-69
2023/05/26 08:17:02;;;;;;;;;;;24.60;62.30;;;;;;5092427;28;19923;-67
2023/05/26 08:19:28;;;;;;;;;;;24.70;62.10;;;;;;5074386;28;19912;-67
2023/05/26 08:21:54;;;;;;;;;;;24.80;61.70;;;;;;5057060;28;20285;-66
2023/05/26 08:24:22;;;;;;;;;;;24.80;61.70;;;;;;5089992;28;20245;-68
2023/05/26 08:26:48;;;;;;;;;;;24.90;61.20;;;;;;5092936;28;20342;-67
2023/05/26 08:29:13;;;;;;;;;;;24.90;61.20;;;;;;5091996;28;20012;-67
2023/05/26 08:31:39;;;;;;;;;;;25.00;60.70;;;;;;5075063;28;19912;-69
2023/05/26 08:34:06;;;;;;;;;;;25.00;60.60;;;;;;5075036;28;20281;-68
2023/05/26 08:36:31;;;;;;;;;;;25.10;60.30;;;;;;5092978;28;20271;-68
2023/05/26 08:38:57;;;;;;;;;;;25.10;60.20;;;;;;5091669;28;19908;-69
2023/05/26 08:41:23;;;;;;;;;;;25.10;60.20;;;;;;5093210;28;19908;-69
2023/05/26 08:43:55;;;;;;;;;;;25.10;59.90;;;;;;5094033;28;19911;-69
2023/05/26 08:46:21;;;;;;;;;;;25.10;60.00;;;;;;5092726;28;19904;-69
2023/05/26 08:48:47;;;;;;;;;;;25.10;60.00;;;;;;5093775;28;19912;-69
2023/05/26 08:51:13;;;;;;;;;;;25.10;60.10;;;;;;5075829;28;19995;-70
2023/05/26 08:53:39;;;;;;;;;;;25.10;60.00;;;;;;5093855;28;19998;-69
2023/05/26 08:56:06;;;;;;;;;;;25.10;60.20;;;;;;5094002;28;19998;-69
2023/05/26 08:58:33;;;;;;;;;;;25.10;60.10;;;;;;5093798;28;19908;-69
2023/05/26 09:00:59;;;;;;;;;;;25.10;60.20;;;;;;5093843;28;19904;-69
2023/05/26 09:03:25;;;;;;;;;;;25.00;60.10;;;;;;5075751;28;19915;-69
2023/05/26 09:05:50;;;;;;;;;;;25.00;60.10;;;;;;5093791;28;20255;-70
2023/05/26 09:08:16;;;;;;;;;;;25.00;60.20;;;;;;5093780;28;20002;-69
2023/05/26 09:10:41;;;;;;;;;;;24.90;60.00;;;;;;5093613;28;20352;-70
2023/05/26 09:13:13;;;;;;;;;;;24.90;60.20;;;;;;5093899;28;19975;-69
2023/05/26 09:15:39;;;;;;;;;;;24.90;60.00;;;;;;5093818;28;19990;-69
2023/05/26 09:18:06;;;;;;;;;;;24.90;60.20;;;;;;5075745;28;19920;-69
2023/05/26 09:20:32;;;;;;;;;;;24.90;60.30;;;;;;5093788;28;20316;-69
2023/05/26 09:22:58;;;;;;;;;;;24.90;60.10;;;;;;5093674;28;19904;-69
2023/05/26 09:25:43;;;;;;;;;;;24.90;60.20;;;;;;5093669;28;20254;-69
2023/05/26 09:28:13;;;;;;;;;;;24.90;60.20;;;;;;5092801;28;19904;-69
2023/05/26 09:30:39;;;;;;;;;;;24.80;60.30;;;;;;5093538;28;19920;-69
2023/05/26 09:33:06;;;;;;;;;;;24.80;60.20;;;;;;5093693;28;19908;-69
2023/05/26 09:35:38;;;;;;;;;;;24.80;60.20;;;;;;5093313;28;19904;-69
2023/05/26 09:38:04;;;;;;;;;;;24.80;60.20;;;;;;5093603;28;19970;-69
2023/05/26 09:40:30;;;;;;;;;;;24.90;60.30;;;;;;5093515;28;19904;-69
2023/05/26 09:42:55;;;;;;;;;;;25.00;60.00;;;;;;5096728;28;20033;-69
2023/05/26 09:45:21;;;;;;;;;;;25.00;59.80;;;;;;5078802;28;20354;-69
2023/05/26 09:47:57;;;;;;;;;;;25.10;59.90;;;;;;5097025;28;19957;-69
2023/05/26 09:50:22;;;;;;;;;;;25.10;59.80;;;;;;5096869;28;20069;-70
2023/05/26 09:52:49;;;;;;;;;;;25.20;60.30;;;;;;5097039;28;19947;-70
2023/05/26 09:55:15;;;;;;;;;;;25.20;59.60;;;;;;5096958;28;19954;-70
2023/05/26 09:57:41;;;;;;;;;;;25.30;59.50;;;;;;5096976;28;19904;-70
2023/05/26 10:00:10;;;;;;;;;;;25.40;59.90;;;;;;5096882;28;20062;-70
2023/05/26 10:02:36;;;;;;;;;;;25.40;59.60;;;;;;5096866;28;19979;-70
2023/05/26 10:05:02;;;;;;;;;;;25.40;59.30;;;;;;5078243;28;19904;-70
2023/05/26 10:07:28;;;;;;;;;;;25.40;59.20;;;;;;5096711;28;19927;-70
2023/05/26 10:09:58;;;;;;;;;;;25.40;59.10;;;;;;5096804;28;19915;-70
2023/05/26 10:12:30;;;;;;;;;;;25.30;58.10;;;;;;5078345;28;19907;-69
2023/05/26 10:14:56;;;;;;;;;;;25.30;55.80;;;;;;5096336;28;20364;-69
2023/05/26 10:17:22;;;;;;;;;;;25.40;56.40;;;;;;5096348;28;19916;-70
2023/05/26 10:19:48;;;;;;;;;;;25.50;57.80;;;;;;5096253;28;19904;-69
2023/05/26 10:22:28;;;;;;;;;;;25.50;57.30;;;;;;5096439;28;19911;-70
2023/05/26 10:24:58;;;;;;;;;;;25.50;56.60;;;;;;5096205;28;19912;-70
2023/05/26 10:27:44;;;;;;;;;;;25.50;56.40;;;;;;5078132;28;19908;-70
2023/05/26 10:30:12;;;;;;;;;;;25.60;57.10;;;;;;5077886;28;19963;-70
2023/05/26 10:32:47;;;;;;;;;;;25.60;55.50;;;;;;5095930;28;20365;-70
2023/05/26 10:35:29;;;;;;;;;;;25.60;56.20;;;;;;5095947;28;20397;-70
2023/05/26 10:38:01;;;;;;;;;;;25.60;56.90;;;;;;5077554;28;19963;-69
2023/05/26 10:40:26;;;;;;;;;;;25.70;57.20;;;;;;5095425;28;19904;-68
2023/05/26 10:42:55;;;;;;;;;;;25.70;56.00;;;;;;5077518;28;19904;-70
2023/05/26 10:45:20;;;;;;;;;;;25.70;56.10;;;;;;5096212;28;19904;-69
2023/05/26 10:47:47;;;;;;;;;;;25.70;56.30;;;;;;5095688;28;19904;-69
2023/05/26 10:50:13;;;;;;;;;;;25.70;56.00;;;;;;5095764;28;19919;-69
2023/05/26 10:52:48;;;;;;;;;;;25.70;55.80;;;;;;5095660;28;20281;-69
2023/05/26 10:55:29;;;;;;;;;;;25.70;56.60;;;;;;5095917;28;19904;-69
2023/05/26 10:58:14;;;;;;;;;;;25.70;55.50;;;;;;5095857;28;19916;-69
2023/05/26 11:00:43;;;;;;;;;;;25.70;55.50;;;;;;5095268;28;20274;-69
2023/05/26 11:03:27;;;;;;;;;;;25.70;55.40;;;;;;5095501;28;19985;-68
2023/05/26 11:05:55;;;;;;;;;;;25.70;56.00;;;;;;5095585;28;19904;-69
2023/05/26 11:08:22;;;;;;;;;;;25.60;55.20;;;;;;5095815;28;19904;-69
2023/05/26 11:11:00;;;;;;;;;;;25.60;55.40;;;;;;5095245;28;19931;-70
2023/05/26 11:13:37;;;;;;;;;;;25.60;55.30;;;;;;5077116;28;19915;-69
2023/05/26 11:16:15;;;;;;;;;;;25.60;55.20;;;;;;5094736;28;19904;-69
2023/05/26 11:18:47;;;;;;;;;;;25.50;54.80;;;;;;5095110;28;19974;-70
2023/05/26 11:21:13;;;;;;;;;;;25.50;55.50;;;;;;5060589;28;19904;-70
2023/05/26 11:23:38;;;;;;;;;;;25.60;55.90;;;;;;5095152;28;20328;-70
2023/05/26 11:26:13;;;;;;;;;;;25.70;55.80;;;;;;5095182;28;19912;-70
2023/05/26 11:28:39;;;;;;;;;;;25.80;55.70;;;;;;5077244;28;20216;-70
2023/05/26 11:31:12;;;;;;;;;;;25.90;55.50;;;;;;5095082;28;20362;-70
2023/05/26 11:33:38;;;;;;;;;;;26.00;55.40;;;;;;5094847;28;19981;-70
2023/05/26 11:36:08;;;;;;;;;;;26.10;55.20;;;;;;5095068;28;20003;-70
2023/05/26 11:38:34;;;;;;;;;;;26.20;55.00;;;;;;5093796;28;19904;-69
2023/05/26 11:41:01;;;;;;;;;;;26.30;54.70;;;;;;5093907;28;19908;-70
2023/05/26 11:43:27;;;;;;;;;;;26.30;53.70;;;;;;5095158;28;19943;-70
2023/05/26 11:45:53;;;;;;;;;;;26.30;54.90;;;;;;5094767;28;20008;-70
2023/05/26 11:48:18;;;;;;;;;;;26.40;54.30;;;;;;5094501;28;20361;-70
2023/05/26 11:50:44;;;;;;;;;;;26.30;53.00;;;;;;5094492;28;20003;-70
2023/05/26 11:53:09;;;;;;;;;;;26.30;53.20;;;;;;5094404;28;19904;-70
2023/05/26 11:55:35;;;;;;;;;;;26.30;54.10;;;;;;5094348;28;19930;-70
2023/05/26 11:58:00;;;;;;;;;;;26.30;53.80;;;;;;5094531;28;20368;-70
2023/05/26 12:00:26;;;;;;;;;;;26.40;54.20;;;;;;5095013;28;19904;-70
2023/05/26 12:02:52;;;;;;;;;;;26.40;54.40;;;;;;5094407;28;19904;-71
2023/05/26 12:05:26;;;;;;;;;;;26.50;54.50;;;;;;5093794;28;19915;-70
2023/05/26 12:08:04;;;;;;;;;;;26.60;54.50;;;;;;5076204;28;20366;-70
2023/05/26 12:10:30;;;;;;;;;;;26.70;54.40;;;;;;5093981;28;19971;-70
2023/05/26 12:12:56;;;;;;;;;;;26.80;53.80;;;;;;5094369;28;19910;-70
2023/05/26 12:15:22;;;;;;;;;;;26.80;54.10;;;;;;5094105;28;19912;-70
2023/05/26 12:17:50;;;;;;;;;;;26.90;54.40;;;;;;5094184;28;19945;-70
2023/05/26 12:20:23;;;;;;;;;;;27.00;54.30;;;;;;5094182;28;20269;-70
2023/05/26 12:22:51;;;;;;;;;;;27.00;53.70;;;;;;5094395;28;19956;-70
2023/05/26 12:25:24;;;;;;;;;;;27.10;53.90;;;;;;5094008;28;19904;-70
2023/05/26 12:27:50;;;;;;;;;;;27.10;54.10;;;;;;5076126;28;19925;-70
2023/05/26 12:30:17;;;;;;;;;;;27.10;53.80;;;;;;5094020;28;19920;-68
2023/05/26 12:32:42;;;;;;;;;;;27.20;53.70;;;;;;5093824;28;19904;-69
2023/05/26 12:35:08;;;;;;;;;;;27.30;54.00;;;;;;5094106;28;19915;-69
2023/05/26 12:37:33;;;;;;;;;;;27.40;53.80;;;;;;5094167;28;20242;-69
2023/05/26 12:40:00;;;;;;;;;;;27.50;53.70;;;;;;5094117;28;19904;-69
2023/05/26 12:42:25;;;;;;;;;;;27.60;53.50;;;;;;5093957;28;19961;-69
2023/05/26 12:44:50;;;;;;;;;;;27.70;53.50;;;;;;5093711;28;20254;-69
2023/05/26 12:47:16;;;;;;;;;;;27.60;53.30;;;;;;5094059;28;19904;-69
2023/05/26 12:49:41;;;;;;;;;;;27.70;53.40;;;;;;5093837;28;19962;-69
2023/05/26 12:52:07;;;;;;;;;;;27.60;53.50;;;;;;5076124;28;20003;-69
2023/05/26 12:54:32;;;;;;;;;;;27.60;53.20;;;;;;5076150;28;19956;-69
2023/05/26 12:56:58;;;;;;;;;;;27.50;52.90;;;;;;5093812;28;20007;-69
2023/05/26 12:59:24;;;;;;;;;;;27.30;51.10;;;;;;5093870;28;20003;-69
2023/05/26 13:01:49;;;;;;;;;;;27.20;52.20;;;;;;5093901;28;20262;-69
2023/05/26 13:04:15;;;;;;;;;;;27.20;51.80;;;;;;5093708;28;19950;-69
2023/05/26 13:06:40;;;;;;;;;;;27.20;52.50;;;;;;5093708;28;19904;-69
2023/05/26 13:09:06;;;;;;;;;;;27.10;50.80;;;;;;5093818;28;19919;-68
2023/05/26 13:11:31;;;;;;;;;;;27.00;51.60;;;;;;5075909;28;19927;-69
2023/05/26 13:13:57;;;;;;;;;;;26.90;52.20;;;;;;5093560;28;19910;-68
2023/05/26 13:16:22;;;;;;;;;;;26.80;51.30;;;;;;5094171;28;19904;-69
2023/05/26 13:18:48;;;;;;;;;;;26.70;52.50;;;;;;5097989;28;20016;-69
2023/05/26 13:21:13;;;;;;;;;;;26.70;53.00;;;;;;5097650;28;19949;-69
2023/05/26 13:23:39;;;;;;;;;;;26.70;52.90;;;;;;5097317;28;20312;-68
2023/05/26 13:26:06;;;;;;;;;;;26.70;53.80;;;;;;5097517;28;20312;-68
2023/05/26 13:28:32;;;;;;;;;;;26.80;53.90;;;;;;5079178;28;19915;-68
2023/05/26 13:30:58;;;;;;;;;;;26.90;53.60;;;;;;5078806;28;20254;-68
2023/05/26 13:33:23;;;;;;;;;;;27.00;54.10;;;;;;5097101;28;20002;-69
2023/05/26 13:35:49;;;;;;;;;;;27.10;53.80;;;;;;5097429;28;19904;-69
2023/05/26 13:38:14;;;;;;;;;;;27.20;53.50;;;;;;5078853;28;19908;-69
2023/05/26 13:40:40;;;;;;;;;;;27.20;53.10;;;;;;5096944;28;19911;-68
2023/05/26 13:43:06;;;;;;;;;;;27.10;53.20;;;;;;5097045;28;19904;-68
2023/05/26 13:45:32;;;;;;;;;;;27.10;53.50;;;;;;5097059;28;19911;-68
2023/05/26 13:47:58;;;;;;;;;;;27.00;53.10;;;;;;5078347;28;19911;-69
2023/05/26 13:50:24;;;;;;;;;;;26.90;53.30;;;;;;5096956;28;20278;-69
2023/05/26 13:52:49;;;;;;;;;;;26.80;53.70;;;;;;5096943;28;19904;-68
2023/05/26 13:55:15;;;;;;;;;;;26.70;53.40;;;;;;5097081;28;19908;-68
2023/05/26 13:57:41;;;;;;;;;;;26.70;53.70;;;;;;5096979;28;19904;-68
2023/05/26 14:00:08;;;;;;;;;;;26.70;53.60;;;;;;5096977;28;19926;-69
2023/05/26 14:02:34;;;;;;;;;;;26.60;53.30;;;;;;5096572;28;19957;-69
2023/05/26 14:04:59;;;;;;;;;;;26.50;53.70;;;;;;5096679;28;19908;-68
2023/05/26 14:07:25;;;;;;;;;;;26.60;54.20;;;;;;5096790;28;19908;-69
2023/05/26 14:09:50;;;;;;;;;;;26.60;55.20;;;;;;5096448;28;20014;-70
2023/05/26 14:12:17;;;;;;;;;;;26.80;55.20;;;;;;5096611;28;19982;-70
2023/05/26 14:14:43;;;;;;;;;;;27.00;55.40;;;;;;5096687;28;19957;-70